首页
METAR-TAF:

METAR-TAF

机场 :

布鲁塞尔机场

布鲁塞尔, 比利时

纬度: 50-54N, 经度: 004-32E, 海拔: 55米

当前天气观测

该预报发布于17分钟前的21:20 UTC
风速2节,风向西转西北
温度 16°C
湿度 82%
气压 1026 hPa
能见度10公里或以上
1500米以下无云,无积雨云

METAR: EBBR 222120Z 30002KT CAVOK 16/13 Q1026 NOSIG

时间: 23:37 (21:37 UTC)

预报

该预报发布于4小时和31分钟前的17:06 UTC
预报有效从22日的 18点(UTC)到 23日的 24点(UTC)
风速3节,风向西北
能见度10公里或以上
1500米以下无云,无积雨云

TAF: EBBR 221706Z 2218/2324 32003KT CAVOK

超过4000个机场的气象观测和天气预报(METAR&TAF报告)。

可查询的气象台以黄色和红色小点在地图上表示。

将鼠标移到小点上方,可查看气象台名称。

然后点击查看天气观测和预报。

如需切换地图:点击带黑十字的绿色按钮放大地图;点击带横线的绿色按钮缩小地图;或者点击绿色箭头查看邻近地区的地图。


METAR-TAF: